TimeEDT,TemperatureF,Dew PointF,Humidity,Sea Level PressureIn,VisibilityMPH,Wind Direction,Wind SpeedMPH,Gust SpeedMPH,PrecipitationIn,Events,Conditions,WindDirDegrees,DateUTC
12:53 AM,61.0,57.0,87,30.09,10.0,Calm,Calm,-,N/A,,Clear,0,2013-05-01 04:53:00
1:53 AM,61.0,55.9,83,30.09,10.0,Calm,Calm,-,N/A,,Clear,0,2013-05-01 05:53:00
2:53 AM,60.1,55.9,86,30.08,10.0,Calm,Calm,-,N/A,,Scattered Clouds,0,2013-05-01 06:53:00
3:53 AM,59.0,55.9,90,30.08,10.0,Calm,Calm,-,N/A,,Clear,0,2013-05-01 07:53:00
4:53 AM,59.0,55.9,90,30.07,10.0,Calm,Calm,-,N/A,,Clear,0,2013-05-01 08:53:00
5:53 AM,59.0,55.9,90,30.08,10.0,Calm,Calm,-,N/A,,Scattered Clouds,0,2013-05-01 09:53:00
6:53 AM,57.9,55.0,90,30.10,10.0,NNE,3.5,-,N/A,,Mostly Cloudy,20,2013-05-01 10:53:00
7:53 AM,62.1,57.9,86,30.13,10.0,North,3.5,-,N/A,,Mostly Cloudy,360,2013-05-01 11:53:00
8:53 AM,66.0,59.0,78,30.15,10.0,Calm,Calm,-,N/A,,Mostly Cloudy,0,2013-05-01 12:53:00
9:53 AM,68.0,57.9,70,30.16,10.0,Calm,Calm,-,N/A,,Mostly Cloudy,0,2013-05-01 13:53:00
10:53 AM,69.1,57.9,68,30.17,10.0,Calm,Calm,-,N/A,,Mostly Cloudy,0,2013-05-01 14:53:00
11:11 AM,69.8,57.2,64,30.19,10.0,Variable,3.5,-,N/A,,Mostly Cloudy,0,2013-05-01 15:11:00
11:49 AM,71.6,57.2,60,30.18,10.0,Calm,Calm,-,N/A,,Mostly Cloudy,0,2013-05-01 15:49:00
11:53 AM,72.0,57.0,59,30.17,10.0,Calm,Calm,-,N/A,,Mostly Cloudy,0,2013-05-01 15:53:00
12:53 PM,72.0,57.9,61,30.15,10.0,Variable,3.5,-,N/A,,Mostly Cloudy,0,2013-05-01 16:53:00
1:53 PM,73.0,57.0,57,30.16,10.0,South,3.5,-,N/A,,Overcast,190,2013-05-01 17:53:00
2:53 PM,73.9,55.9,53,30.14,10.0,Calm,Calm,-,N/A,,Overcast,0,2013-05-01 18:53:00
3:53 PM,75.0,55.9,51,30.12,10.0,Calm,Calm,-,N/A,,Overcast,0,2013-05-01 19:53:00
4:53 PM,75.0,57.0,53,30.11,10.0,South,8.1,-,N/A,,Overcast,180,2013-05-01 20:53:00
5:53 PM,73.9,55.9,53,30.10,10.0,South,3.5,-,N/A,,Overcast,180,2013-05-01 21:53:00
6:53 PM,73.0,55.9,55,30.10,10.0,SSE,5.8,-,N/A,,Overcast,150,2013-05-01 22:53:00
7:53 PM,72.0,55.9,57,30.10,10.0,South,4.6,-,N/A,,Overcast,180,2013-05-01 23:53:00
8:53 PM,69.1,54.0,58,30.12,10.0,South,8.1,-,N/A,,Overcast,170,2013-05-02 00:53:00
9:53 PM,68.0,54.0,61,30.14,10.0,South,5.8,-,N/A,,Overcast,190,2013-05-02 01:53:00
10:53 PM,66.9,53.1,61,30.16,10.0,South,4.6,-,N/A,,Overcast,190,2013-05-02 02:53:00
11:53 PM,66.0,53.1,63,30.17,10.0,South,3.5,-,N/A,,Overcast,180,2013-05-02 03:53:00